Südanflug-Wetter

Südanflüge sind sowohl am Euroairport Basel-Mulhouse-Freiburg als auch am Flughafen Unique Zürich ein Thema für die Anwohner. In Basel hängen Südanflüge von den Windverhältnissen ab. Für den Euroairport Basel-Mulhouse-Freiburg bereitet MeteoNews deshalb aktuelle Winddaten auf, die direkt auf der Homepage des Flughafens eingebunden werden. Angaben zum Flughafen Zürich finden Sie hier.

In Zürich sind Südanflüge auf die Piste 34 möglich, wenn die horizontale Sichtweite mindestens 750 m beträgt und die Wolkenuntergrenze im Anflugsektor nicht tiefer als 300 Fuss (knapp 100 m) liegt (diese Werte gelten seit dem 1. November 2004).

Prognose für Südanflüge

Morgen Sonntag sind Südanflüge trotz des vorhandenen Hochnebels möglich.
(Prognose ohne Gewähr. Die Vorhersage wird mehrmals täglich aktualisiert. Verantwortlicher Meteorologe: Wetterbüro, 17.11.2018 14:58)

Analyse der letzten METAR-Messungen

Unser Tool wertet die letzten 20 offiziellen Wettermeldungen (METAR) des Flughafens Zürich aus und entscheidet aufgrund der beiden Werte für Sichtweite und Ceiling (Hauptwolkenuntergrenze), ob Südanflüge nach obiger Definition möglich wären. Allerdings repräsentiert der Wert für die Wolkenuntergrenze in der METAR-Meldung nicht die Bewölkung im Anflugsektor sondern generell um den Flughafen. Da über die Bewölkung im Anflugsektor kurzfristig aufgrund von Beobachtungen des Towers und von Piloten entschieden wird, kann die Angabe unseres Tools in gewissen Fällen von den realen Entscheiden der Flugsicherung abweichen.

Südanflüge Datum Uhrzeit Sichtweite Ceiling Vollständige METAR-Meldung
möglich 2018-11-17 22:20:00 > 10 km LSZH 172120Z 05006KT 350V080 9999 FEW010 03/M02 Q1023 NOSIG
möglich 2018-11-17 21:50:00 > 10 km LSZH 172050Z 04004KT 360V070 9999 FEW010 04/M02 Q1023 NOSIG
möglich 2018-11-17 21:20:00 > 10 km LSZH 172020Z 35004KT 300V040 9999 FEW010 04/M02 Q1023 NOSIG
möglich 2018-11-17 20:50:00 > 10 km LSZH 171950Z 03004KT 330V080 CAVOK 04/M01 Q1023 NOSIG
möglich 2018-11-17 20:20:00 > 10 km LSZH 171920Z 34004KT 300V030 CAVOK 03/M01 Q1023 NOSIG
möglich 2018-11-17 19:50:00 > 10 km LSZH 171850Z VRB03KT CAVOK 04/M01 Q1023 NOSIG
möglich 2018-11-17 19:20:00 > 10 km LSZH 171820Z 31003KT 270V340 CAVOK 02/M01 Q1023 NOSIG
möglich 2018-11-17 18:50:00 > 10 km LSZH 171750Z 32004KT CAVOK 04/M00 Q1023 NOSIG
möglich 2018-11-17 18:20:00 > 10 km LSZH 171720Z 31004KT 290V350 CAVOK 03/M00 Q1023 NOSIG
möglich 2018-11-17 17:50:00 > 10 km LSZH 171650Z 30003KT CAVOK 03/M00 Q1023 NOSIG
möglich 2018-11-17 17:20:00 > 10 km LSZH 171620Z 03003KT 350V060 CAVOK 06/M00 Q1023 NOSIG
möglich 2018-11-17 16:50:00 > 10 km LSZH 171550Z VRB03KT CAVOK 06/M00 Q1023 NOSIG
möglich 2018-11-17 16:20:00 > 10 km LSZH 171520Z VRB03KT 9999 FEW025 06/00 Q1023 NOSIG
möglich 2018-11-17 15:50:00 > 10 km LSZH 171450Z 03003KT 350V090 9999 FEW025 06/01 Q1023 NOSIG
möglich 2018-11-17 15:20:00 > 10 km LSZH 171420Z 07005KT 030V120 9999 FEW025 06/01 Q1023 NOSIG
möglich 2018-11-17 14:50:00 > 10 km LSZH 171350Z 04004KT 360V080 9999 FEW022 06/00 Q1023 NOSIG
möglich 2018-11-17 14:20:00 > 10 km LSZH 171320Z 04006KT 350V090 9999 FEW022 06/00 Q1023 NOSIG
möglich 2018-11-17 13:50:00 > 10 km LSZH 171250Z 03006KT 360V080 9999 SCT020 04/M00 Q1024 NOSIG
möglich 2018-11-17 13:20:00 > 10 km 580 m LSZH 171220Z 02006KT 350V060 9999 BKN019 05/M00 Q1024 NOSIG
möglich 2018-11-17 12:50:00 > 10 km 580 m LSZH 171150Z 04007KT 9999 BKN019 04/M01 Q1024 NOSIG